createdAt,value
2018-07-13T00:02:16.189Z,21.40
2018-07-13T00:04:49.109Z,21.40
2018-07-13T00:07:20.548Z,21.40
2018-07-13T00:09:53.148Z,21.40
2018-07-13T00:12:25.250Z,21.50
2018-07-13T00:15:13.428Z,21.50
2018-07-13T00:17:45.248Z,21.40
2018-07-13T00:20:16.808Z,21.30
2018-07-13T00:22:48.928Z,21.20
2018-07-13T00:25:20.848Z,21.20
2018-07-13T00:27:52.988Z,21.20
2018-07-13T00:30:25.648Z,21.20
2018-07-13T00:32:57.268Z,21.10
2018-07-13T00:35:28.968Z,21.00
2018-07-13T00:38:01.109Z,21.00
2018-07-13T00:40:33.368Z,21.00
2018-07-13T00:43:05.388Z,20.90
2018-07-13T00:45:37.328Z,20.90
2018-07-13T00:48:07.508Z,20.80
2018-07-13T00:50:39.190Z,20.80
2018-07-13T00:53:11.408Z,20.80
2018-07-13T00:55:44.748Z,20.70
2018-07-13T00:58:16.089Z,20.70
2018-07-13T01:00:48.356Z,20.80
2018-07-13T01:03:19.849Z,20.70
2018-07-13T01:05:52.509Z,20.70
2018-07-13T01:08:24.809Z,20.70
2018-07-13T01:10:57.109Z,20.70
2018-07-13T01:13:29.708Z,20.60
2018-07-13T01:16:01.452Z,20.60
2018-07-13T01:18:33.429Z,20.50
2018-07-13T01:21:06.148Z,20.40
2018-07-13T01:23:37.808Z,20.50
2018-07-13T01:26:10.027Z,20.40
2018-07-13T01:28:41.448Z,20.30
2018-07-13T01:31:12.971Z,20.30
2018-07-13T01:33:45.029Z,20.30
2018-07-13T01:36:17.948Z,20.40
2018-07-13T01:38:49.888Z,20.40
2018-07-13T01:41:22.308Z,20.30
2018-07-13T01:43:55.047Z,20.30
2018-07-13T01:46:27.188Z,20.20
2018-07-13T01:48:59.027Z,20.20
2018-07-13T01:51:31.028Z,20.20
2018-07-13T01:54:03.028Z,20.20
2018-07-13T01:56:35.248Z,20.30
2018-07-13T01:59:06.888Z,20.30
2018-07-13T02:01:39.028Z,20.30
2018-07-13T02:04:11.269Z,20.20
2018-07-13T02:06:43.048Z,20.20
2018-07-13T02:09:14.867Z,20.10
2018-07-13T02:11:47.027Z,20.00
2018-07-13T02:14:18.228Z,20.00
2018-07-13T02:16:50.507Z,20.00
2018-07-13T02:19:22.628Z,19.90
2018-07-13T02:21:54.708Z,19.90
2018-07-13T02:24:26.348Z,20.00
2018-07-13T02:26:58.287Z,20.00
2018-07-13T02:29:30.728Z,20.00
2018-07-13T02:32:02.528Z,19.90
2018-07-13T02:34:34.009Z,19.90
2018-07-13T02:37:05.888Z,19.80
2018-07-13T02:39:37.888Z,19.80
2018-07-13T02:42:09.490Z,19.80
2018-07-13T02:44:40.790Z,19.80
2018-07-13T02:47:12.228Z,19.80
2018-07-13T02:49:44.008Z,19.70
2018-07-13T02:52:15.450Z,19.70
2018-07-13T02:54:47.689Z,19.70
2018-07-13T02:57:19.609Z,19.60
2018-07-13T02:59:51.632Z,19.60
2018-07-13T03:02:23.508Z,19.50
2018-07-13T03:04:55.908Z,19.60
2018-07-13T03:07:28.030Z,19.50
2018-07-13T03:10:00.350Z,19.50
2018-07-13T03:12:32.813Z,19.50
2018-07-13T03:15:04.809Z,19.40
2018-07-13T03:17:36.890Z,19.40
2018-07-13T03:20:08.848Z,19.40
2018-07-13T03:22:41.428Z,19.40
2018-07-13T03:25:13.608Z,19.30
2018-07-13T03:27:45.549Z,19.30
2018-07-13T03:30:17.589Z,19.30
2018-07-13T03:32:49.968Z,19.30
2018-07-13T03:35:22.068Z,19.40
2018-07-13T03:37:54.608Z,19.30
2018-07-13T03:40:26.289Z,19.30
2018-07-13T03:42:58.568Z,19.20
2018-07-13T03:45:30.608Z,19.20
2018-07-13T03:48:02.709Z,19.20
2018-07-13T03:50:35.248Z,19.20
2018-07-13T03:53:07.748Z,19.30
2018-07-13T03:55:39.989Z,19.20
2018-07-13T03:58:12.348Z,19.10
2018-07-13T04:00:43.890Z,19.10
2018-07-13T04:03:15.888Z,19.00
2018-07-13T04:05:47.829Z,19.00
2018-07-13T04:08:19.988Z,19.10
2018-07-13T04:10:51.709Z,19.10
2018-07-13T04:13:23.990Z,19.00
2018-07-13T04:15:56.568Z,19.00
2018-07-13T04:18:28.308Z,19.00
2018-07-13T04:21:00.568Z,19.00
2018-07-13T04:23:33.049Z,19.00
2018-07-13T04:26:04.728Z,18.90
2018-07-13T04:28:37.194Z,18.90
2018-07-13T04:33:39.048Z,18.90
2018-07-13T04:36:10.909Z,18.90
2018-07-13T04:38:41.948Z,18.90
2018-07-13T04:41:15.108Z,19.00
2018-07-13T04:43:47.748Z,19.00
2018-07-13T04:46:19.488Z,19.00
2018-07-13T04:48:51.907Z,19.00
2018-07-13T04:51:23.532Z,19.00
2018-07-13T04:53:55.891Z,19.10
2018-07-13T04:56:28.889Z,19.10
2018-07-13T04:59:00.368Z,19.00
2018-07-13T05:01:32.548Z,19.00
2018-07-13T05:04:04.288Z,19.10
2018-07-13T05:06:37.248Z,19.10
2018-07-13T05:09:10.368Z,19.10
2018-07-13T05:11:42.288Z,19.10
2018-07-13T05:14:14.231Z,19.10
2018-07-13T05:16:46.928Z,19.10
2018-07-13T05:19:18.228Z,19.20
2018-07-13T05:21:51.187Z,19.30
2018-07-13T05:24:23.147Z,19.40
2018-07-13T05:26:56.068Z,19.50
2018-07-13T05:29:27.668Z,19.60
2018-07-13T05:31:59.728Z,19.70
2018-07-13T05:34:31.748Z,19.70
2018-07-13T05:37:03.689Z,19.80
2018-07-13T05:39:35.588Z,19.80
2018-07-13T05:42:07.408Z,19.90
2018-07-13T05:44:40.148Z,20.10
2018-07-13T05:47:12.809Z,20.20
2018-07-13T05:49:44.701Z,20.20
2018-07-13T05:52:17.028Z,20.30
2018-07-13T05:54:49.288Z,20.30
2018-07-13T05:57:21.229Z,20.40
2018-07-13T05:59:52.956Z,20.50
2018-07-13T06:02:25.136Z,20.60
2018-07-13T06:04:57.109Z,20.70
2018-07-13T06:07:29.608Z,20.80
2018-07-13T06:10:01.473Z,20.90
2018-07-13T06:12:34.049Z,21.00
2018-07-13T06:15:06.611Z,21.20
2018-07-13T06:17:38.990Z,21.20
2018-07-13T06:20:12.189Z,21.30
2018-07-13T06:22:44.309Z,21.30
2018-07-13T06:25:16.529Z,21.40
2018-07-13T06:27:48.429Z,21.50
2018-07-13T06:30:21.201Z,21.60
2018-07-13T06:32:52.970Z,21.70
2018-07-13T06:35:25.293Z,21.80
2018-07-13T06:37:57.549Z,22.00
2018-07-13T06:40:30.310Z,22.10
2018-07-13T06:43:02.157Z,22.30
2018-07-13T06:45:37.329Z,22.50
2018-07-13T06:48:07.589Z,22.70
2018-07-13T06:50:39.871Z,22.70
2018-07-13T06:53:12.989Z,22.80
2018-07-13T06:55:45.069Z,22.80
2018-07-13T06:59:21.157Z,22.90
2018-07-13T07:01:53.468Z,23.10
2018-07-13T07:04:34.168Z,23.00
2018-07-13T07:07:07.669Z,23.00
2018-07-13T07:09:39.612Z,23.00
2018-07-13T07:13:31.923Z,23.10
2018-07-13T07:16:03.465Z,23.20
2018-07-13T07:18:36.824Z,23.30
2018-07-13T07:21:09.645Z,23.30
2018-07-13T07:23:41.579Z,23.30
2018-07-13T07:26:14.037Z,23.30
2018-07-13T07:28:46.877Z,23.30
2018-07-13T07:31:18.316Z,23.30
2018-07-13T07:33:49.816Z,23.40
2018-07-13T07:36:22.084Z,23.60
2018-07-13T07:38:54.138Z,23.70
2018-07-13T07:41:26.176Z,23.80
2018-07-13T07:43:58.102Z,23.80
2018-07-13T07:46:29.656Z,23.90
2018-07-13T07:49:01.096Z,24.00
2018-07-13T07:51:33.451Z,24.10
2018-07-13T07:54:05.572Z,24.20
2018-07-13T07:56:38.491Z,24.30
2018-07-13T07:59:10.152Z,24.40
2018-07-13T08:01:43.635Z,24.50
2018-07-13T08:04:15.526Z,24.50
2018-07-13T08:06:48.083Z,24.50
2018-07-13T08:09:20.026Z,25.00
2018-07-13T08:11:52.482Z,24.50
2018-07-13T08:14:24.429Z,24.60
2018-07-13T08:16:57.076Z,24.70
2018-07-13T08:19:29.985Z,24.80
2018-07-13T08:22:04.654Z,24.90
2018-07-13T08:24:37.451Z,24.90
2018-07-13T08:27:09.272Z,24.90
2018-07-13T08:29:43.510Z,24.80
2018-07-13T08:32:15.571Z,24.80
2018-07-13T08:34:48.072Z,24.70
2018-07-13T08:37:19.590Z,24.70
2018-07-13T08:39:51.990Z,24.70
2018-07-13T08:42:23.629Z,24.70
2018-07-13T08:44:55.571Z,24.70
2018-07-13T08:47:27.017Z,24.70
2018-07-13T08:49:58.567Z,24.60
2018-07-13T08:52:30.407Z,24.50
2018-07-13T08:55:07.387Z,24.60
2018-07-13T08:57:40.549Z,24.50
2018-07-13T09:00:12.828Z,24.50
2018-07-13T09:02:44.628Z,24.50
2018-07-13T09:05:15.848Z,24.60
2018-07-13T09:07:47.828Z,24.70
2018-07-13T09:10:20.202Z,24.90
2018-07-13T09:12:51.851Z,24.90
2018-07-13T09:15:23.701Z,24.90
2018-07-13T09:17:55.568Z,24.90
2018-07-13T09:20:27.796Z,25.10
2018-07-13T09:23:00.555Z,25.20
2018-07-13T09:25:31.977Z,25.30
2018-07-13T09:28:04.413Z,25.30
2018-07-13T09:30:35.674Z,25.20
2018-07-13T09:33:08.434Z,25.20
2018-07-13T09:35:40.134Z,25.20
2018-07-13T09:38:11.814Z,25.20
2018-07-13T09:40:43.663Z,25.00
2018-07-13T09:43:15.862Z,25.00
2018-07-13T09:45:47.742Z,25.10
2018-07-13T09:48:19.683Z,25.20
2018-07-13T09:50:51.042Z,25.20
2018-07-13T09:53:23.883Z,25.30
2018-07-13T09:55:55.686Z,25.40
2018-07-13T09:58:38.973Z,25.50
2018-07-13T10:01:15.366Z,25.60
2018-07-13T10:03:47.527Z,25.80
2018-07-13T10:06:19.286Z,25.90
2018-07-13T10:08:51.170Z,26.00
2018-07-13T10:11:23.097Z,26.00
2018-07-13T10:13:55.037Z,26.10
2018-07-13T10:16:26.956Z,26.00
2018-07-13T10:18:58.616Z,26.20
2018-07-13T10:21:31.712Z,26.20
2018-07-13T10:24:04.280Z,26.10
2018-07-13T10:26:37.520Z,26.00
2018-07-13T10:29:15.046Z,26.10
2018-07-13T10:31:47.042Z,26.40
2018-07-13T10:34:20.721Z,26.50
2018-07-13T10:36:55.923Z,26.50
2018-07-13T10:39:26.675Z,26.50
2018-07-13T10:41:58.625Z,26.80
2018-07-13T10:44:30.551Z,27.20
2018-07-13T10:47:02.381Z,27.30
2018-07-13T10:49:33.964Z,27.20
2018-07-13T10:52:05.881Z,27.20
2018-07-13T10:54:37.842Z,27.30
2018-07-13T10:57:09.748Z,27.40
2018-07-13T10:59:41.967Z,27.50
2018-07-13T11:02:13.885Z,27.80
2018-07-13T11:04:45.581Z,27.90
2018-07-13T11:07:17.316Z,28.10
2018-07-13T11:09:48.739Z,28.10
2018-07-13T11:12:20.358Z,28.20
2018-07-13T11:14:52.240Z,28.10
2018-07-13T11:17:24.493Z,28.00
2018-07-13T11:19:56.295Z,28.10
2018-07-13T11:22:28.209Z,28.10
2018-07-13T11:25:00.670Z,28.10
2018-07-13T11:27:31.962Z,28.10
2018-07-13T11:30:03.642Z,28.30
2018-07-13T11:32:36.186Z,28.60
2018-07-13T11:35:08.046Z,28.70
2018-07-13T11:37:39.687Z,28.90
2018-07-13T11:40:12.285Z,29.10
2018-07-13T11:42:43.725Z,29.30
2018-07-13T11:45:14.986Z,29.50
2018-07-13T11:47:47.305Z,29.60
2018-07-13T11:50:19.531Z,29.70
2018-07-13T11:52:51.301Z,29.30
2018-07-13T11:55:23.992Z,29.00
2018-07-13T11:57:55.218Z,28.90
2018-07-13T12:00:26.795Z,29.00
2018-07-13T12:02:58.609Z,29.40
2018-07-13T12:05:30.729Z,29.60
2018-07-13T12:08:02.029Z,29.90
2018-07-13T12:10:33.589Z,29.90
2018-07-13T12:13:05.270Z,30.10
2018-07-13T12:15:37.369Z,30.20
2018-07-13T12:18:07.789Z,30.10
2018-07-13T12:20:39.951Z,30.20
2018-07-13T12:23:11.741Z,30.40
2018-07-13T12:25:43.365Z,30.50
2018-07-13T12:28:15.084Z,30.50
2018-07-13T12:30:46.681Z,30.70
2018-07-13T12:33:18.771Z,30.80
2018-07-13T12:35:51.204Z,31.00
2018-07-13T12:38:22.961Z,31.20
2018-07-13T12:40:55.060Z,31.10
2018-07-13T12:43:26.897Z,31.30
2018-07-13T12:45:59.735Z,31.40
2018-07-13T12:48:31.199Z,31.40
2018-07-13T12:51:03.536Z,31.50
2018-07-13T12:53:36.036Z,31.50
2018-07-13T12:56:08.095Z,31.40
2018-07-13T12:58:41.656Z,31.70
2018-07-13T13:01:14.556Z,31.80
2018-07-13T13:03:46.472Z,31.70
2018-07-13T13:06:18.756Z,31.70
2018-07-13T13:08:50.996Z,31.80
2018-07-13T13:11:22.357Z,31.80
2018-07-13T13:13:55.277Z,32.00
2018-07-13T13:16:26.777Z,32.10
2018-07-13T13:18:58.756Z,31.80
2018-07-13T13:21:30.918Z,31.90
2018-07-13T13:24:03.436Z,32.10
2018-07-13T13:26:35.559Z,32.10
2018-07-13T13:29:07.047Z,32.10
2018-07-13T13:31:39.396Z,32.40
2018-07-13T13:34:11.655Z,32.40
2018-07-13T13:36:44.955Z,32.20
2018-07-13T13:39:17.456Z,32.30
2018-07-13T13:41:49.375Z,32.50
2018-07-13T13:44:21.276Z,32.80
2018-07-13T13:46:52.495Z,33.00
2018-07-13T13:49:24.637Z,33.20
2018-07-13T13:51:57.469Z,33.30
2018-07-13T13:54:30.489Z,33.40
2018-07-13T13:57:02.110Z,33.50
2018-07-13T13:59:33.829Z,33.60
2018-07-13T14:02:05.590Z,33.80
2018-07-13T14:04:38.602Z,33.90
2018-07-13T14:07:10.560Z,34.10
2018-07-13T14:09:42.579Z,34.20
2018-07-13T14:12:14.221Z,34.20
2018-07-13T14:14:45.803Z,34.20
2018-07-13T14:17:17.423Z,34.20
2018-07-13T14:19:50.459Z,34.30
2018-07-13T14:22:22.999Z,34.40
2018-07-13T14:24:54.643Z,34.40
2018-07-13T14:27:27.060Z,34.30
2018-07-13T14:29:59.556Z,34.20
2018-07-13T14:32:31.436Z,34.30
2018-07-13T14:35:03.169Z,34.20
2018-07-13T14:37:35.346Z,34.30
2018-07-13T14:40:06.530Z,34.30
2018-07-13T14:42:38.946Z,34.20
2018-07-13T14:45:09.533Z,34.20
2018-07-13T14:47:41.554Z,34.10
2018-07-13T14:50:13.173Z,34.10
2018-07-13T14:52:44.953Z,34.00
2018-07-13T14:55:17.473Z,34.00
2018-07-13T14:57:49.593Z,34.00
2018-07-13T15:00:21.273Z,33.80
2018-07-13T15:02:53.934Z,33.80
2018-07-13T15:05:25.503Z,33.60
2018-07-13T15:10:28.746Z,33.40
2018-07-13T15:13:02.012Z,33.20
2018-07-13T15:15:34.111Z,33.00
2018-07-13T15:18:05.841Z,32.90
2018-07-13T15:20:37.732Z,32.80
2018-07-13T15:23:09.971Z,32.50
2018-07-13T15:25:42.092Z,32.30
2018-07-13T15:28:12.692Z,32.10
2018-07-13T15:30:44.593Z,32.00
2018-07-13T15:33:16.651Z,31.80
2018-07-13T15:35:48.612Z,31.70
2018-07-13T15:38:21.011Z,31.60
2018-07-13T15:40:53.111Z,31.40
2018-07-13T15:43:25.198Z,31.20
2018-07-13T15:45:57.274Z,31.10
2018-07-13T15:48:29.652Z,31.00
2018-07-13T15:51:02.132Z,30.80
2018-07-13T15:53:33.870Z,30.70
2018-07-13T15:56:06.531Z,30.60
2018-07-13T15:58:38.370Z,30.60
2018-07-13T16:01:14.078Z,30.60
2018-07-13T16:03:46.272Z,30.60
2018-07-13T16:06:17.651Z,30.50
2018-07-13T16:08:49.345Z,30.40
2018-07-13T16:11:21.088Z,30.40
2018-07-13T16:13:52.283Z,30.30
2018-07-13T16:16:23.869Z,30.20
2018-07-13T16:18:55.594Z,30.10
2018-07-13T16:21:28.047Z,30.10
2018-07-13T16:23:59.346Z,30.20
2018-07-13T16:29:01.407Z,30.10
2018-07-13T16:31:33.547Z,30.10
2018-07-13T16:34:05.220Z,30.10
2018-07-13T16:36:36.467Z,30.10
2018-07-13T16:39:09.407Z,30.10
2018-07-13T16:41:41.273Z,30.00
2018-07-13T16:44:13.587Z,30.00
2018-07-13T16:46:45.807Z,30.00
2018-07-13T16:49:17.687Z,29.90
2018-07-13T16:51:49.895Z,29.90
2018-07-13T16:54:21.587Z,29.90
2018-07-13T16:56:53.007Z,29.90
2018-07-13T16:59:26.127Z,29.90
2018-07-13T17:01:57.668Z,29.90
2018-07-13T17:04:29.827Z,29.90
2018-07-13T17:07:02.410Z,29.80
2018-07-13T17:09:33.988Z,29.80
2018-07-13T17:12:06.909Z,29.80
2018-07-13T17:14:38.868Z,29.70
2018-07-13T17:17:10.695Z,29.70
2018-07-13T17:19:43.908Z,29.70
2018-07-13T17:22:15.291Z,29.60
2018-07-13T17:24:47.788Z,29.60
2018-07-13T17:27:19.928Z,29.60
2018-07-13T17:29:51.897Z,29.50
2018-07-13T17:32:23.511Z,29.50
2018-07-13T17:34:56.467Z,29.50
2018-07-13T17:37:27.747Z,29.50
2018-07-13T17:40:00.008Z,29.50
2018-07-13T17:42:31.880Z,29.50
2018-07-13T17:45:03.674Z,29.50
2018-07-13T17:47:35.588Z,29.40
2018-07-13T17:50:07.828Z,29.40
2018-07-13T17:52:40.051Z,29.40
2018-07-13T17:55:12.467Z,29.40
2018-07-13T17:57:43.968Z,29.40
2018-07-13T18:00:16.007Z,29.30
2018-07-13T18:02:48.687Z,29.30
2018-07-13T18:05:21.847Z,29.30
2018-07-13T18:07:53.447Z,29.30
2018-07-13T18:10:25.567Z,29.20
2018-07-13T18:12:57.033Z,29.20
2018-07-13T18:15:29.427Z,29.10
2018-07-13T18:18:00.748Z,29.20
2018-07-13T18:20:33.109Z,29.20
2018-07-13T18:23:05.564Z,29.10
2018-07-13T18:25:37.367Z,29.00
2018-07-13T18:28:10.307Z,29.00
2018-07-13T18:30:41.871Z,28.90
2018-07-13T18:33:13.788Z,28.90
2018-07-13T18:35:45.747Z,28.90
2018-07-13T18:38:18.390Z,28.80
2018-07-13T18:40:50.068Z,28.70
2018-07-13T18:43:22.465Z,28.50
2018-07-13T18:45:54.931Z,28.40
2018-07-13T18:48:26.587Z,28.20
2018-07-13T18:50:59.586Z,28.10
2018-07-13T18:53:31.247Z,28.10
2018-07-13T18:56:03.988Z,28.10
2018-07-13T18:58:35.246Z,28.00
2018-07-13T19:01:07.667Z,27.90
2018-07-13T19:03:39.451Z,27.80
2018-07-13T19:06:11.506Z,27.70
2018-07-13T19:08:43.347Z,27.70
2018-07-13T19:11:15.546Z,27.60
2018-07-13T19:13:48.366Z,27.50
2018-07-13T19:16:19.667Z,27.50
2018-07-13T19:18:51.288Z,27.40
2018-07-13T19:21:23.027Z,27.40
2018-07-13T19:23:54.667Z,27.40
2018-07-13T19:26:26.834Z,27.40
2018-07-13T19:28:58.708Z,27.30
2018-07-13T19:31:31.747Z,27.30
2018-07-13T19:34:03.607Z,27.20
2018-07-13T19:36:35.428Z,27.00
2018-07-13T19:39:07.708Z,26.90
2018-07-13T19:41:40.088Z,26.80
2018-07-13T19:44:12.907Z,26.70
2018-07-13T19:46:44.691Z,26.70
2018-07-13T19:49:16.871Z,26.60
2018-07-13T19:51:48.607Z,26.60
2018-07-13T19:54:21.447Z,26.50
2018-07-13T19:56:53.267Z,26.40
2018-07-13T19:59:25.367Z,26.30
2018-07-13T20:01:57.208Z,26.30
2018-07-13T20:04:29.288Z,26.30
2018-07-13T20:07:02.272Z,26.30
2018-07-13T20:09:33.747Z,26.30
2018-07-13T20:12:05.969Z,26.30
2018-07-13T20:14:37.748Z,26.30
2018-07-13T20:17:09.399Z,26.20
2018-07-13T20:19:40.688Z,26.10
2018-07-13T20:22:12.947Z,26.00
2018-07-13T20:24:44.747Z,25.90
2018-07-13T20:27:17.588Z,25.80
2018-07-13T20:29:49.127Z,25.90
2018-07-13T20:32:20.947Z,25.80
2018-07-13T20:34:53.406Z,25.80
2018-07-13T20:37:25.209Z,25.70
2018-07-13T20:39:58.287Z,25.70
2018-07-13T20:42:29.208Z,25.70
2018-07-13T20:45:01.779Z,25.70
2018-07-13T20:47:34.221Z,25.60
2018-07-13T20:50:05.906Z,25.50
2018-07-13T20:52:38.236Z,25.50
2018-07-13T20:55:09.766Z,25.50
2018-07-13T20:57:41.906Z,25.40
2018-07-13T21:00:13.627Z,25.40
2018-07-13T21:02:46.261Z,25.30
2018-07-13T21:05:19.827Z,25.20
2018-07-13T21:07:52.071Z,25.20
2018-07-13T21:10:23.947Z,25.20
2018-07-13T21:12:55.247Z,25.20
2018-07-13T21:15:27.247Z,25.20
2018-07-13T21:17:58.726Z,25.10
2018-07-13T21:20:31.207Z,25.10
2018-07-13T21:23:02.606Z,25.10
2018-07-13T21:25:34.691Z,25.00
2018-07-13T21:28:06.227Z,25.00
2018-07-13T21:30:39.146Z,24.90
2018-07-13T21:33:10.606Z,24.70
2018-07-13T21:35:43.071Z,24.70
2018-07-13T21:38:14.308Z,24.60
2018-07-13T21:40:46.348Z,24.60
2018-07-13T21:43:17.807Z,24.60
2018-07-13T21:45:49.806Z,24.70
2018-07-13T21:48:21.866Z,24.70
2018-07-13T21:50:54.707Z,24.80
2018-07-13T21:53:26.446Z,24.70
2018-07-13T21:55:59.207Z,24.70
2018-07-13T21:58:30.808Z,24.60
2018-07-13T22:01:02.728Z,24.60
2018-07-13T22:03:34.687Z,24.50
2018-07-13T22:06:07.006Z,24.60
2018-07-13T22:08:39.327Z,24.50
2018-07-13T22:11:11.227Z,24.50
2018-07-13T22:13:43.027Z,24.40
2018-07-13T22:16:15.049Z,24.40
2018-07-13T22:18:47.088Z,24.40
2018-07-13T22:21:18.955Z,24.40
2018-07-13T22:23:51.369Z,24.30
2018-07-13T22:26:24.350Z,24.30
2018-07-13T22:28:56.067Z,24.20
2018-07-13T22:31:28.626Z,24.20
2018-07-13T22:34:00.467Z,24.30
2018-07-13T22:36:32.307Z,24.30
2018-07-13T22:39:04.347Z,24.20
2018-07-13T22:41:36.187Z,24.10
2018-07-13T22:46:39.788Z,24.00
2018-07-13T22:49:12.107Z,24.10
2018-07-13T22:51:44.987Z,24.10
2018-07-13T22:54:16.166Z,24.00
2018-07-13T22:56:48.407Z,24.00
2018-07-13T22:59:19.588Z,23.90
2018-07-13T23:01:51.710Z,23.90
2018-07-13T23:04:22.967Z,23.80
2018-07-13T23:06:55.827Z,23.80
2018-07-13T23:09:28.387Z,23.70
2018-07-13T23:12:00.887Z,23.60
2018-07-13T23:14:32.627Z,23.70
2018-07-13T23:17:04.047Z,23.70
2018-07-13T23:19:36.387Z,23.70
2018-07-13T23:22:08.447Z,23.70
2018-07-13T23:24:40.787Z,23.60
2018-07-13T23:27:12.827Z,23.50
2018-07-13T23:29:45.047Z,23.50
2018-07-13T23:32:18.007Z,23.50
2018-07-13T23:34:50.088Z,23.50
2018-07-13T23:39:52.588Z,23.40
2018-07-13T23:42:25.167Z,23.40
2018-07-13T23:44:56.547Z,23.30
2018-07-13T23:47:28.706Z,23.30
2018-07-13T23:50:01.170Z,23.20
2018-07-13T23:52:33.266Z,23.30
2018-07-13T23:55:05.207Z,23.30
2018-07-13T23:57:37.186Z,23.20
